Time;durP1;ratioP1;P1;durP2;ratioP2;P2;SDS_P1;SDS_P2;PMS_P1;PMS_P2;Temp;Humidity;BMP_temperature;BMP_pressure;BME280_temperature;BME280_humidity;BME280_pressure;Samples;Min_cycle;Max_cycle;Signal;HPM_P1;HPM_P2
2022/05/08 00:02:12;;;;;;;18.73;13.43;;;;;;;;;;5071291;28;20411;-54
2022/05/08 00:04:38;;;;;;;15.50;10.87;;;;;;;;;;5071649;28;20424;-55
2022/05/08 00:07:04;;;;;;;14.07;9.80;;;;;;;;;;5071870;28;20397;-53
2022/05/08 00:09:30;;;;;;;17.00;10.27;;;;;;;;;;5071781;28;20964;-53
2022/05/08 00:11:56;;;;;;;16.17;9.10;;;;;;;;;;5071243;28;20408;-54
2022/05/08 00:14:22;;;;;;;11.40;7.90;;;;;;;;;;5071722;28;20451;-53
2022/05/08 00:16:48;;;;;;;10.70;7.67;;;;;;;;;;5071799;28;20768;-53
2022/05/08 00:19:14;;;;;;;10.00;7.53;;;;;;;;;;5071754;28;20392;-54
2022/05/08 00:21:40;;;;;;;11.67;7.37;;;;;;;;;;5071274;28;20393;-55
2022/05/08 00:24:06;;;;;;;12.23;7.27;;;;;;;;;;5071670;28;20453;-54
2022/05/08 00:26:32;;;;;;;12.40;6.93;;;;;;;;;;5071826;28;20400;-55
2022/05/08 00:28:58;;;;;;;9.40;6.63;;;;;;;;;;5071679;28;20433;-54
2022/05/08 00:31:24;;;;;;;9.27;6.57;;;;;;;;;;5071061;28;20430;-54
2022/05/08 00:33:50;;;;;;;10.07;6.50;;;;;;;;;;5071605;28;20438;-53
2022/05/08 00:36:17;;;;;;;8.60;7.13;;;;;;;;;;5071670;28;20503;-54
2022/05/08 00:38:43;;;;;;;9.33;6.97;;;;;;;;;;5071553;28;20408;-55
2022/05/08 00:41:09;;;;;;;9.03;6.10;;;;;;;;;;5070879;28;20404;-53
2022/05/08 00:43:38;;;;;;;10.00;5.80;;;;;;;;;;5071557;28;20471;-54
2022/05/08 00:46:07;;;;;;;10.20;6.30;;;;;;;;;;5073406;28;20400;-53
2022/05/08 00:48:34;;;;;;;11.13;5.60;;;;;;;;;;5075443;28;20402;-54
2022/05/08 00:51:01;;;;;;;7.90;6.00;;;;;;;;;;5074783;28;20381;-53
2022/05/08 00:53:30;;;;;;;7.30;5.30;;;;;;;;;;5074100;28;20451;-53
2022/05/08 00:55:56;;;;;;;9.00;6.20;;;;;;;;;;5075210;28;20964;-54
2022/05/08 00:58:23;;;;;;;9.23;5.80;;;;;;;;;;5075224;28;20483;-55
2022/05/08 01:00:48;;;;;;;5.73;5.10;;;;;;;;;;5074009;28;20399;-54
2022/05/08 01:03:15;;;;;;;10.63;6.07;;;;;;;;;;5074469;28;20432;-54
2022/05/08 01:05:41;;;;;;;10.23;6.30;;;;;;;;;;5074469;28;20400;-54
2022/05/08 01:08:08;;;;;;;8.87;6.17;;;;;;;;;;5074149;28;20400;-55
2022/05/08 01:10:34;;;;;;;7.77;6.10;;;;;;;;;;5075009;28;20377;-53
2022/05/08 01:13:01;;;;;;;11.10;5.77;;;;;;;;;;5074407;28;20773;-54
2022/05/08 01:15:28;;;;;;;8.63;5.40;;;;;;;;;;5074781;28;20994;-53
2022/05/08 01:17:54;;;;;;;8.33;5.33;;;;;;;;;;5074906;28;20376;-53
2022/05/08 01:20:20;;;;;;;7.70;6.07;;;;;;;;;;5074879;28;20404;-55
2022/05/08 01:22:46;;;;;;;5.97;5.23;;;;;;;;;;5074182;28;20428;-54
2022/05/08 01:25:12;;;;;;;9.47;6.67;;;;;;;;;;5074775;28;20473;-54
2022/05/08 01:27:38;;;;;;;10.43;6.50;;;;;;;;;;5074774;28;20404;-54
2022/05/08 01:30:05;;;;;;;8.20;6.13;;;;;;;;;;5074634;28;20461;-54
2022/05/08 01:32:31;;;;;;;6.80;5.70;;;;;;;;;;5073968;28;20385;-54
2022/05/08 01:34:57;;;;;;;9.13;6.87;;;;;;;;;;5074668;28;20827;-54
2022/05/08 01:37:23;;;;;;;7.50;5.70;;;;;;;;;;5074255;28;20442;-55
2022/05/08 01:39:49;;;;;;;9.60;6.37;;;;;;;;;;5074495;28;20432;-54
2022/05/08 01:42:15;;;;;;;8.73;6.30;;;;;;;;;;5073675;28;20384;-55
2022/05/08 01:44:42;;;;;;;7.43;6.13;;;;;;;;;;5074447;28;20444;-54
2022/05/08 01:49:52;;;;;;;8.43;6.70;;;;;;;;;;5074346;28;20833;-54
2022/05/08 01:52:18;;;;;;;14.17;6.87;;;;;;;;;;5073468;28;20455;-54
2022/05/08 01:54:44;;;;;;;14.23;7.37;;;;;;;;;;5074208;28;20481;-54
2022/05/08 02:00:15;;;;;;;10.90;7.20;;;;;;;;;;5074058;28;20366;-55
2022/05/08 02:02:43;;;;;;;12.63;6.50;;;;;;;;;;5073398;28;20416;-54
2022/05/08 02:05:09;;;;;;;8.90;7.67;;;;;;;;;;5073994;28;20921;-54
2022/05/08 02:07:35;;;;;;;9.10;7.33;;;;;;;;;;5074046;28;20399;-55
2022/05/08 02:10:01;;;;;;;12.67;8.63;;;;;;;;;;5074069;28;20407;-54
2022/05/08 02:12:27;;;;;;;13.77;8.60;;;;;;;;;;5073227;28;20416;-54
2022/05/08 02:14:53;;;;;;;11.37;9.27;;;;;;;;;;5073866;28;20435;-54
2022/05/08 02:17:22;;;;;;;13.73;8.10;;;;;;;;;;5073797;28;20372;-54
2022/05/08 02:19:48;;;;;;;17.30;8.00;;;;;;;;;;5074017;28;20910;-54
2022/05/08 02:22:14;;;;;;;13.53;8.30;;;;;;;;;;5072999;28;20467;-54
2022/05/08 02:24:40;;;;;;;15.43;8.97;;;;;;;;;;5073726;28;20409;-54
2022/05/08 02:27:06;;;;;;;13.40;8.90;;;;;;;;;;5073696;28;20416;-54
2022/05/08 02:29:32;;;;;;;11.03;8.90;;;;;;;;;;5073490;28;20401;-55
2022/05/08 02:31:57;;;;;;;11.47;8.40;;;;;;;;;;5072083;28;20401;-54
2022/05/08 02:34:23;;;;;;;17.20;9.53;;;;;;;;;;5073215;28;20496;-54
2022/05/08 02:36:49;;;;;;;11.30;8.57;;;;;;;;;;5073486;28;20404;-54
2022/05/08 02:39:15;;;;;;;17.27;9.40;;;;;;;;;;5073345;28;20408;-54
2022/05/08 02:41:41;;;;;;;11.90;9.63;;;;;;;;;;5072746;28;20397;-54
2022/05/08 02:44:07;;;;;;;14.13;10.30;;;;;;;;;;5073284;28;20459;-54
2022/05/08 02:46:33;;;;;;;15.83;9.97;;;;;;;;;;5073221;28;20405;-54
2022/05/08 02:48:59;;;;;;;12.60;10.17;;;;;;;;;;5073187;28;20400;-53
2022/05/08 02:51:25;;;;;;;18.60;10.90;;;;;;;;;;5072388;28;20421;-55
2022/05/08 02:53:51;;;;;;;21.20;10.97;;;;;;;;;;5073043;28;20519;-54
2022/05/08 02:59:02;;;;;;;11.07;8.40;;;;;;;;;;5072963;28;20389;-53
2022/05/08 03:01:28;;;;;;;11.57;7.70;;;;;;;;;;5072269;28;20404;-54
2022/05/08 03:03:54;;;;;;;13.80;7.80;;;;;;;;;;5072823;28;20904;-54
2022/05/08 03:06:20;;;;;;;11.93;6.60;;;;;;;;;;5072930;28;20389;-54
2022/05/08 03:08:46;;;;;;;12.73;6.87;;;;;;;;;;5072911;28;20389;-54
2022/05/08 03:11:32;;;;;;;12.77;6.67;;;;;;;;;;5072162;28;20396;-55
2022/05/08 03:13:58;;;;;;;13.70;6.10;;;;;;;;;;5072660;28;20423;-54
2022/05/08 03:16:27;;;;;;;7.57;5.50;;;;;;;;;;5072765;28;20884;-55
2022/05/08 03:18:55;;;;;;;11.53;5.80;;;;;;;;;;5072559;28;20404;-54
2022/05/08 03:21:21;;;;;;;13.27;5.87;;;;;;;;;;5071847;28;20822;-54
2022/05/08 03:23:48;;;;;;;9.43;5.80;;;;;;;;;;5072524;28;20516;-54
2022/05/08 03:26:14;;;;;;;10.60;5.60;;;;;;;;;;5072450;28;20462;-54
2022/05/08 03:28:40;;;;;;;9.13;5.53;;;;;;;;;;5072368;28;20449;-54
2022/05/08 03:31:07;;;;;;;7.57;5.00;;;;;;;;;;5071859;28;20409;-54
2022/05/08 03:33:33;;;;;;;11.13;5.33;;;;;;;;;;5071359;28;20574;-53
2022/05/08 03:35:59;;;;;;;11.03;4.80;;;;;;;;;;5072180;28;20455;-53
2022/05/08 03:38:27;;;;;;;7.83;4.50;;;;;;;;;;5072170;28;20446;-54
2022/05/08 03:40:53;;;;;;;9.23;5.73;;;;;;;;;;5071620;28;20806;-54
2022/05/08 03:43:19;;;;;;;10.33;5.60;;;;;;;;;;5072261;28;20427;-54
2022/05/08 03:45:48;;;;;;;10.37;5.53;;;;;;;;;;5072227;28;20420;-54
2022/05/08 03:48:15;;;;;;;9.53;5.80;;;;;;;;;;5072114;28;20439;-54
2022/05/08 03:50:40;;;;;;;13.20;5.20;;;;;;;;;;5071907;28;20405;-54
2022/05/08 03:53:06;;;;;;;7.23;5.40;;;;;;;;;;5071378;28;20454;-53
2022/05/08 03:55:32;;;;;;;12.40;6.00;;;;;;;;;;5072059;28;20452;-53
2022/05/08 03:57:58;;;;;;;12.50;6.10;;;;;;;;;;5072330;28;20397;-53
2022/05/08 04:00:24;;;;;;;9.60;6.53;;;;;;;;;;5072017;28;20436;-54
2022/05/08 04:02:50;;;;;;;10.00;5.90;;;;;;;;;;5071341;28;20448;-54
2022/05/08 04:05:16;;;;;;;17.13;5.83;;;;;;;;;;5071864;28;20412;-55
2022/05/08 04:07:42;;;;;;;11.37;4.87;;;;;;;;;;5072072;28;20393;-54
2022/05/08 04:10:09;;;;;;;13.30;5.23;;;;;;;;;;5071819;28;20491;-54
2022/05/08 04:12:35;;;;;;;10.17;5.20;;;;;;;;;;5071148;28;20432;-54
2022/05/08 04:15:01;;;;;;;10.70;5.00;;;;;;;;;;5071821;28;20458;-54
2022/05/08 04:17:28;;;;;;;19.00;5.07;;;;;;;;;;5071826;28;20409;-54
2022/05/08 04:19:57;;;;;;;9.57;4.13;;;;;;;;;;5071072;28;20404;-54
2022/05/08 04:25:10;;;;;;;10.93;4.33;;;;;;;;;;5071767;28;20403;-54
2022/05/08 04:27:36;;;;;;;21.27;5.27;;;;;;;;;;5071719;28;20920;-54
2022/05/08 04:30:03;;;;;;;19.53;4.93;;;;;;;;;;5071649;28;20394;-55
2022/05/08 04:32:29;;;;;;;14.27;5.20;;;;;;;;;;5070004;28;20428;-54
2022/05/08 04:34:55;;;;;;;20.97;4.37;;;;;;;;;;5071316;28;20543;-54
2022/05/08 04:37:21;;;;;;;15.50;3.83;;;;;;;;;;5071634;28;20435;-55
2022/05/08 04:39:47;;;;;;;12.67;4.50;;;;;;;;;;5071548;28;20408;-54
2022/05/08 04:42:13;;;;;;;12.30;4.30;;;;;;;;;;5070852;28;20462;-54
2022/05/08 04:44:39;;;;;;;16.90;4.87;;;;;;;;;;5071495;28;20420;-54
2022/05/08 04:47:05;;;;;;;16.33;4.87;;;;;;;;;;5071573;28;20440;-55
2022/05/08 04:49:31;;;;;;;14.87;5.53;;;;;;;;;;5071475;28;20419;-53
2022/05/08 04:51:57;;;;;;;7.73;4.03;;;;;;;;;;5070776;28;20420;-54
2022/05/08 04:54:24;;;;;;;22.23;5.57;;;;;;;;;;5071336;28;20501;-54
2022/05/08 04:56:51;;;;;;;13.40;4.90;;;;;;;;;;5071357;28;20400;-54
2022/05/08 04:59:17;;;;;;;10.40;4.97;;;;;;;;;;5071409;28;20392;-54
2022/05/08 05:01:43;;;;;;;18.13;4.57;;;;;;;;;;5070809;28;20419;-53
2022/05/08 05:04:09;;;;;;;10.23;3.80;;;;;;;;;;5071465;28;20984;-54
2022/05/08 05:06:35;;;;;;;11.20;4.73;;;;;;;;;;5071369;28;20401;-54
2022/05/08 05:09:01;;;;;;;17.67;4.43;;;;;;;;;;5071316;28;20400;-54
2022/05/08 05:11:27;;;;;;;22.17;5.40;;;;;;;;;;5070753;28;20427;-54
2022/05/08 05:13:53;;;;;;;15.23;5.40;;;;;;;;;;5071261;28;20428;-54
2022/05/08 05:16:19;;;;;;;15.43;4.33;;;;;;;;;;5071221;28;20517;-54
2022/05/08 05:18:45;;;;;;;13.03;4.53;;;;;;;;;;5071144;28;20797;-54
2022/05/08 05:21:11;;;;;;;17.20;5.00;;;;;;;;;;5070697;28;20431;-54
2022/05/08 05:23:37;;;;;;;11.97;4.50;;;;;;;;;;5071206;28;20879;-54
2022/05/08 05:26:03;;;;;;;11.57;4.33;;;;;;;;;;5071210;28;20436;-53
2022/05/08 05:28:30;;;;;;;15.67;4.80;;;;;;;;;;5071074;28;20428;-54
2022/05/08 05:30:56;;;;;;;17.93;4.53;;;;;;;;;;5070566;28;20400;-54
2022/05/08 05:33:22;;;;;;;10.30;4.60;;;;;;;;;;5072273;28;20428;-54
2022/05/08 05:35:48;;;;;;;8.53;4.73;;;;;;;;;;5074504;28;20448;-54
2022/05/08 05:38:14;;;;;;;10.53;4.93;;;;;;;;;;5074642;28;20412;-54
2022/05/08 05:40:40;;;;;;;16.50;4.70;;;;;;;;;;5074337;28;20397;-54
2022/05/08 05:43:06;;;;;;;11.87;5.97;;;;;;;;;;5074082;28;20486;-54
2022/05/08 05:45:32;;;;;;;20.80;4.33;;;;;;;;;;5075116;28;20462;-53
2022/05/08 05:48:00;;;;;;;21.57;6.43;;;;;;;;;;5074363;28;20401;-54
2022/05/08 05:50:27;;;;;;;11.90;4.97;;;;;;;;;;5074262;28;20403;-54
2022/05/08 05:52:54;;;;;;;15.33;4.80;;;;;;;;;;5073566;28;20555;-53
2022/05/08 05:55:20;;;;;;;14.27;4.60;;;;;;;;;;5074229;28;20542;-54
2022/05/08 05:57:46;;;;;;;13.00;3.57;;;;;;;;;;5074218;28;20810;-55
2022/05/08 06:00:13;;;;;;;14.30;6.00;;;;;;;;;;5074135;28;20397;-54
2022/05/08 06:02:42;;;;;;;7.67;3.27;;;;;;;;;;5073456;28;20424;-54
2022/05/08 06:05:08;;;;;;;10.90;5.33;;;;;;;;;;5074000;28;20775;-54
2022/05/08 06:07:35;;;;;;;10.00;4.70;;;;;;;;;;5074020;28;20436;-54
2022/05/08 06:10:01;;;;;;;11.33;4.60;;;;;;;;;;5073919;28;20412;-53
2022/05/08 06:12:27;;;;;;;18.30;5.57;;;;;;;;;;5073351;28;20469;-53
2022/05/08 06:14:53;;;;;;;12.30;4.80;;;;;;;;;;5073854;28;20455;-54
2022/05/08 06:17:19;;;;;;;18.57;5.17;;;;;;;;;;5073818;28;20897;-54
2022/05/08 06:19:45;;;;;;;20.37;5.03;;;;;;;;;;5073761;28;20412;-61
2022/05/08 06:22:11;;;;;;;12.10;5.53;;;;;;;;;;5073152;28;20398;-53
2022/05/08 06:24:38;;;;;;;17.03;5.37;;;;;;;;;;5073612;28;20436;-54
2022/05/08 06:27:05;;;;;;;11.10;4.33;;;;;;;;;;5073683;28;20409;-53
2022/05/08 06:29:31;;;;;;;10.07;4.27;;;;;;;;;;5073548;28;20427;-54
2022/05/08 06:31:57;;;;;;;13.20;4.57;;;;;;;;;;5072919;28;20462;-53
2022/05/08 06:34:23;;;;;;;15.07;4.20;;;;;;;;;;5073301;28;20940;-55
2022/05/08 06:36:49;;;;;;;11.27;4.33;;;;;;;;;;5073469;28;20894;-53
2022/05/08 06:39:15;;;;;;;15.13;4.47;;;;;;;;;;5073378;28;20775;-54
2022/05/08 06:41:41;;;;;;;10.20;4.10;;;;;;;;;;5072845;28;20492;-54
2022/05/08 06:44:07;;;;;;;9.47;4.17;;;;;;;;;;5072815;28;20445;-53
2022/05/08 06:46:35;;;;;;;13.07;5.83;;;;;;;;;;5073240;28;20628;-54
2022/05/08 06:49:02;;;;;;;16.50;5.33;;;;;;;;;;5073205;28;20398;-54
2022/05/08 06:51:28;;;;;;;18.27;4.80;;;;;;;;;;5072518;28;20427;-54
2022/05/08 06:53:54;;;;;;;11.00;4.40;;;;;;;;;;5073159;28;20414;-54
2022/05/08 06:56:20;;;;;;;15.57;4.83;;;;;;;;;;5073090;28;20597;-54
2022/05/08 07:01:42;;;;;;;10.50;4.60;;;;;;;;;;5072239;28;20424;-54
2022/05/08 07:04:09;;;;;;;7.40;4.07;;;;;;;;;;5072973;28;20420;-54
2022/05/08 07:06:36;;;;;;;14.20;4.47;;;;;;;;;;5072275;28;20931;-54
2022/05/08 07:09:02;;;;;;;8.47;3.70;;;;;;;;;;5072805;28;20393;-54
2022/05/08 07:11:30;;;;;;;8.00;4.00;;;;;;;;;;5072241;28;20397;-54
2022/05/08 07:13:56;;;;;;;17.97;5.23;;;;;;;;;;5072699;28;20439;-54
2022/05/08 07:16:22;;;;;;;21.27;5.50;;;;;;;;;;5072593;28;20457;-54
2022/05/08 07:18:48;;;;;;;11.47;4.50;;;;;;;;;;5072544;28;20396;-55
2022/05/08 07:21:14;;;;;;;16.93;4.80;;;;;;;;;;5071953;28;20450;-55
2022/05/08 07:23:40;;;;;;;13.27;6.37;;;;;;;;;;5072532;28;20512;-54
2022/05/08 07:26:06;;;;;;;17.10;5.27;;;;;;;;;;5072628;28;20760;-54
2022/05/08 07:28:32;;;;;;;18.83;5.80;;;;;;;;;;5072421;28;20400;-53
2022/05/08 07:30:58;;;;;;;17.80;5.57;;;;;;;;;;5071753;28;20451;-54
2022/05/08 07:33:24;;;;;;;17.07;5.30;;;;;;;;;;5072337;28;20421;-54
2022/05/08 07:38:35;;;;;;;17.33;4.60;;;;;;;;;;5072269;28;20515;-53
2022/05/08 07:41:02;;;;;;;7.60;4.20;;;;;;;;;;5071591;28;20797;-54
2022/05/08 07:43:28;;;;;;;9.90;4.03;;;;;;;;;;5072162;28;20761;-54
2022/05/08 07:45:54;;;;;;;12.20;4.30;;;;;;;;;;5072142;28;20843;-54
2022/05/08 07:48:20;;;;;;;19.00;4.10;;;;;;;;;;5072331;28;20479;-54
2022/05/08 07:50:46;;;;;;;9.33;4.30;;;;;;;;;;5071561;28;20431;-56
2022/05/08 07:53:13;;;;;;;10.27;4.17;;;;;;;;;;5071996;28;20863;-54
2022/05/08 07:55:39;;;;;;;7.90;4.13;;;;;;;;;;5071089;28;20455;-55
2022/05/08 07:58:05;;;;;;;15.57;4.03;;;;;;;;;;5072072;28;20482;-54
2022/05/08 08:00:31;;;;;;;14.40;3.83;;;;;;;;;;5071931;28;20491;-54
2022/05/08 08:02:57;;;;;;;8.83;4.37;;;;;;;;;;5071350;28;20426;-54
2022/05/08 08:05:23;;;;;;;11.40;4.30;;;;;;;;;;5072052;28;20404;-55
2022/05/08 08:07:49;;;;;;;13.60;4.10;;;;;;;;;;5071895;28;20400;-54
2022/05/08 08:10:16;;;;;;;14.93;4.27;;;;;;;;;;5071914;28;20467;-54
2022/05/08 08:12:42;;;;;;;10.30;3.97;;;;;;;;;;5071191;28;20395;-54
2022/05/08 08:15:08;;;;;;;10.93;3.90;;;;;;;;;;5072000;28;20440;-55
2022/05/08 08:17:34;;;;;;;15.73;4.37;;;;;;;;;;5072089;28;20437;-54
2022/05/08 08:20:00;;;;;;;16.40;4.10;;;;;;;;;;5071762;28;20826;-54
2022/05/08 08:22:26;;;;;;;15.60;4.63;;;;;;;;;;5071159;28;20819;-54
2022/05/08 08:24:52;;;;;;;14.90;4.30;;;;;;;;;;5071690;28;20415;-54
2022/05/08 08:27:19;;;;;;;15.30;4.30;;;;;;;;;;5071754;28;20386;-54
2022/05/08 08:29:45;;;;;;;13.33;3.80;;;;;;;;;;5071658;28;20460;-54
2022/05/08 08:32:11;;;;;;;14.63;4.13;;;;;;;;;;5071198;28;20415;-54
2022/05/08 08:34:37;;;;;;;7.70;3.40;;;;;;;;;;5071590;28;20984;-54
2022/05/08 08:37:03;;;;;;;9.80;4.20;;;;;;;;;;5071680;28;20395;-55
2022/05/08 08:39:29;;;;;;;10.10;4.23;;;;;;;;;;5071571;28;20464;-54
2022/05/08 08:42:21;;;;;;;15.70;3.80;;;;;;;;;;5070979;28;20406;-55
2022/05/08 08:47:44;;;;;;;13.33;3.43;;;;;;;;;;5071691;28;20402;-53
2022/05/08 08:50:10;;;;;;;13.97;4.10;;;;;;;;;;5071634;28;20907;-54
2022/05/08 08:52:37;;;;;;;15.67;3.47;;;;;;;;;;5070957;28;20530;-55
2022/05/08 08:55:04;;;;;;;9.27;3.70;;;;;;;;;;5071420;28;20451;-54
2022/05/08 08:57:30;;;;;;;8.33;3.57;;;;;;;;;;5071507;28;20403;-55
2022/05/08 08:59:56;;;;;;;11.10;4.80;;;;;;;;;;5071435;28;20396;-55
2022/05/08 09:02:22;;;;;;;13.77;4.03;;;;;;;;;;5070799;28;20415;-54
2022/05/08 09:04:51;;;;;;;24.90;6.00;;;;;;;;;;5071458;28;20743;-55
2022/05/08 09:07:37;;;;;;;14.00;3.77;;;;;;;;;;5073706;28;20499;-54
2022/05/08 09:10:06;;;;;;;12.30;4.40;;;;;;;;;;5073273;28;20498;-55
2022/05/08 09:12:32;;;;;;;10.70;3.97;;;;;;;;;;5074321;28;20404;-54
2022/05/08 09:14:58;;;;;;;11.13;4.80;;;;;;;;;;5075004;28;20529;-54
2022/05/08 09:17:24;;;;;;;15.90;4.10;;;;;;;;;;5075164;28;20403;-54
2022/05/08 09:19:50;;;;;;;13.97;4.10;;;;;;;;;;5074845;28;20519;-54
2022/05/08 09:22:18;;;;;;;14.10;3.80;;;;;;;;;;5074239;28;20923;-54
2022/05/08 09:24:54;;;;;;;6.30;3.73;;;;;;;;;;5075016;28;20890;-54
2022/05/08 09:27:21;;;;;;;12.27;4.63;;;;;;;;;;5074724;28;20411;-54
2022/05/08 09:29:47;;;;;;;7.50;4.67;;;;;;;;;;5074792;28;20405;-54
2022/05/08 09:32:35;;;;;;;8.50;3.57;;;;;;;;;;5073974;28;20425;-55
2022/05/08 09:35:01;;;;;;;12.77;4.40;;;;;;;;;;5074547;28;20457;-54
2022/05/08 09:37:28;;;;;;;14.33;5.20;;;;;;;;;;5074638;28;20880;-54
2022/05/08 09:40:13;;;;;;;14.47;5.43;;;;;;;;;;5074404;28;20397;-55
2022/05/08 09:42:39;;;;;;;13.60;4.60;;;;;;;;;;5073777;28;20507;-54
2022/05/08 09:45:10;;;;;;;10.67;4.00;;;;;;;;;;5074445;28;20947;-54
2022/05/08 09:47:43;;;;;;;10.83;3.73;;;;;;;;;;5074593;28;20482;-54
2022/05/08 09:50:10;;;;;;;11.70;3.90;;;;;;;;;;5074271;28;20406;-55
2022/05/08 09:52:40;;;;;;;15.60;4.97;;;;;;;;;;5073509;28;20978;-54
2022/05/08 09:55:10;;;;;;;10.10;4.90;;;;;;;;;;5074179;28;20451;-54
2022/05/08 09:57:36;;;;;;;10.10;4.30;;;;;;;;;;5074312;28;20530;-55
2022/05/08 10:00:06;;;;;;;15.00;4.40;;;;;;;;;;5074285;28;20400;-55
2022/05/08 10:02:32;;;;;;;11.77;3.83;;;;;;;;;;5073452;28;20460;-54
2022/05/08 10:04:59;;;;;;;9.87;4.00;;;;;;;;;;5074038;28;20409;-54
2022/05/08 10:07:25;;;;;;;8.77;3.70;;;;;;;;;;5074115;28;20452;-54
2022/05/08 10:15:30;;;;;;;6.33;2.70;;;;;;;;;;5073834;28;20448;-54
2022/05/08 10:18:15;;;;;;;8.30;3.40;;;;;;;;;;5072981;28;20894;-55
2022/05/08 10:20:59;;;;;;;7.63;3.50;;;;;;;;;;5073690;28;20404;-54
2022/05/08 10:23:37;;;;;;;6.40;3.37;;;;;;;;;;5073823;28;20425;-54
2022/05/08 10:26:14;;;;;;;11.70;4.30;;;;;;;;;;5074000;28;20429;-54
2022/05/08 10:29:03;;;;;;;15.33;3.73;;;;;;;;;;5073667;28;20453;-55
2022/05/08 10:31:41;;;;;;;11.43;4.10;;;;;;;;;;5072956;28;20409;-55
2022/05/08 10:34:07;;;;;;;9.37;2.90;;;;;;;;;;5071900;28;20426;-55
2022/05/08 10:36:33;;;;;;;4.97;3.00;;;;;;;;;;5073563;28;20416;-55
2022/05/08 10:39:18;;;;;;;7.60;3.77;;;;;;;;;;5073433;28;20372;-55
2022/05/08 10:41:44;;;;;;;10.10;3.40;;;;;;;;;;5073194;28;20504;-54
2022/05/08 10:44:48;;;;;;;11.37;3.70;;;;;;;;;;5073318;28;20404;-54
2022/05/08 10:47:40;;;;;;;9.40;4.00;;;;;;;;;;5050914;28;20415;-55
2022/05/08 10:50:06;;;;;;;7.73;3.77;;;;;;;;;;5050948;28;20408;-54
2022/05/08 10:52:33;;;;;;;4.50;2.43;;;;;;;;;;5064608;28;20430;-54
2022/05/08 10:55:03;;;;;;;5.10;2.20;;;;;;;;;;5072887;28;20450;-54
2022/05/08 10:57:33;;;;;;;6.10;2.33;;;;;;;;;;5073104;28;20459;-55
2022/05/08 11:00:00;;;;;;;4.90;2.50;;;;;;;;;;5070696;28;21140;-54
2022/05/08 11:02:39;;;;;;;6.63;2.47;;;;;;;;;;5066620;28;20408;-53
2022/05/08 11:05:05;;;;;;;5.00;2.87;;;;;;;;;;5071845;28;20767;-54
2022/05/08 11:07:31;;;;;;;8.97;3.37;;;;;;;;;;5071190;28;20810;-54
2022/05/08 11:09:58;;;;;;;10.50;2.83;;;;;;;;;;5072199;28;20404;-54
2022/05/08 11:12:24;;;;;;;9.00;2.63;;;;;;;;;;5070741;28;20853;-55
2022/05/08 11:14:50;;;;;;;8.33;3.03;;;;;;;;;;5071244;28;20553;-54
2022/05/08 11:17:18;;;;;;;8.07;2.70;;;;;;;;;;5072002;28;20923;-55
2022/05/08 11:19:57;;;;;;;5.60;2.93;;;;;;;;;;5071945;28;20400;-54
2022/05/08 11:22:23;;;;;;;8.53;3.40;;;;;;;;;;5071979;28;20411;-55
2022/05/08 11:24:49;;;;;;;10.67;3.87;;;;;;;;;;5072340;28;20408;-55
2022/05/08 11:27:15;;;;;;;9.40;4.20;;;;;;;;;;5072345;28;20436;-55
2022/05/08 11:29:48;;;;;;;8.37;3.40;;;;;;;;;;5072232;28;20403;-55
2022/05/08 11:38:00;;;;;;;6.43;3.10;;;;;;;;;;5072237;28;20419;-54
2022/05/08 11:40:27;;;;;;;14.03;3.17;;;;;;;;;;5072101;28;20426;-55
2022/05/08 11:42:53;;;;;;;7.20;3.07;;;;;;;;;;5071755;28;20956;-55
2022/05/08 11:45:19;;;;;;;7.53;3.33;;;;;;;;;;5072162;28;20442;-55
2022/05/08 11:47:54;;;;;;;7.40;4.03;;;;;;;;;;5072225;28;20388;-55
2022/05/08 11:50:20;;;;;;;6.97;2.97;;;;;;;;;;5071978;28;20773;-54
2022/05/08 11:52:46;;;;;;;8.20;3.30;;;;;;;;;;5071248;28;20472;-55
2022/05/08 11:55:13;;;;;;;6.13;3.30;;;;;;;;;;5071952;28;20549;-55
2022/05/08 11:57:46;;;;;;;8.10;3.70;;;;;;;;;;5072577;28;20397;-55
2022/05/08 12:00:15;;;;;;;5.30;3.23;;;;;;;;;;5071532;28;20502;-56
2022/05/08 12:02:42;;;;;;;5.90;3.30;;;;;;;;;;5070553;28;20444;-55
2022/05/08 12:05:16;;;;;;;5.63;3.30;;;;;;;;;;5071982;28;20773;-55
2022/05/08 12:07:44;;;;;;;5.73;2.97;;;;;;;;;;5072083;28;20511;-55
2022/05/08 12:10:10;;;;;;;5.10;3.20;;;;;;;;;;5071625;28;20457;-55
2022/05/08 12:12:38;;;;;;;7.73;3.50;;;;;;;;;;5071219;28;20481;-55
2022/05/08 12:15:07;;;;;;;7.23;3.27;;;;;;;;;;5071847;28;20449;-55
2022/05/08 12:17:42;;;;;;;6.27;3.47;;;;;;;;;;5071795;28;20404;-56
2022/05/08 12:20:18;;;;;;;4.47;2.50;;;;;;;;;;5071809;28;20393;-55
2022/05/08 12:22:44;;;;;;;6.73;2.57;;;;;;;;;;5071095;28;20427;-55
2022/05/08 12:25:12;;;;;;;5.53;2.90;;;;;;;;;;5070264;28;20423;-55
2022/05/08 12:27:38;;;;;;;8.30;3.33;;;;;;;;;;5071749;28;20415;-55
2022/05/08 12:30:09;;;;;;;7.03;3.10;;;;;;;;;;5071748;28;20396;-55
2022/05/08 12:32:36;;;;;;;9.73;3.00;;;;;;;;;;5071161;28;20428;-55
2022/05/08 12:35:03;;;;;;;6.63;2.80;;;;;;;;;;5071637;28;20459;-55
2022/05/08 12:37:29;;;;;;;4.10;2.40;;;;;;;;;;5071726;28;20404;-55
2022/05/08 12:39:55;;;;;;;4.70;2.33;;;;;;;;;;5071671;28;20956;-55
2022/05/08 12:42:21;;;;;;;3.50;2.90;;;;;;;;;;5073371;28;20442;-55
2022/05/08 12:44:47;;;;;;;9.67;3.13;;;;;;;;;;5075743;28;20469;-55
2022/05/08 12:47:13;;;;;;;9.37;3.00;;;;;;;;;;5075612;28;20446;-55
2022/05/08 12:49:40;;;;;;;7.67;2.67;;;;;;;;;;5075534;28;20400;-55
2022/05/08 12:52:07;;;;;;;6.37;2.50;;;;;;;;;;5074676;28;20486;-55
2022/05/08 12:54:33;;;;;;;6.70;3.10;;;;;;;;;;5075374;28;20462;-55
2022/05/08 12:57:00;;;;;;;4.33;3.20;;;;;;;;;;5068684;28;20412;-55
2022/05/08 13:02:11;;;;;;;5.33;2.93;;;;;;;;;;5054864;28;20392;-55
2022/05/08 13:04:38;;;;;;;4.90;2.47;;;;;;;;;;5055095;28;20857;-56
2022/05/08 13:07:04;;;;;;;10.13;3.30;;;;;;;;;;5055186;28;20397;-55
2022/05/08 13:09:30;;;;;;;4.63;2.33;;;;;;;;;;5055096;28;20484;-56
2022/05/08 13:11:57;;;;;;;7.60;2.77;;;;;;;;;;5054470;28;20851;-55
2022/05/08 13:14:23;;;;;;;13.00;2.73;;;;;;;;;;5054933;28;20420;-55
2022/05/08 13:16:50;;;;;;;5.20;2.13;;;;;;;;;;5054978;28;20471;-55
2022/05/08 13:19:16;;;;;;;4.33;2.33;;;;;;;;;;5054852;28;20908;-56
2022/05/08 13:21:44;;;;;;;9.87;2.37;;;;;;;;;;5054282;28;20454;-55
2022/05/08 13:24:10;;;;;;;6.87;2.30;;;;;;;;;;5054883;28;20463;-56
2022/05/08 13:26:36;;;;;;;4.80;2.53;;;;;;;;;;5054831;28;20788;-55
2022/05/08 13:29:03;;;;;;;3.90;2.60;;;;;;;;;;5054358;28;20885;-56
2022/05/08 13:31:29;;;;;;;7.00;2.40;;;;;;;;;;5052274;28;20401;-55
2022/05/08 13:33:55;;;;;;;6.07;2.40;;;;;;;;;;5052715;28;20424;-55
2022/05/08 13:36:21;;;;;;;6.80;2.80;;;;;;;;;;5055065;28;20858;-55
2022/05/08 13:38:46;;;;;;;5.07;2.90;;;;;;;;;;5053731;28;20436;-55
2022/05/08 13:41:12;;;;;;;5.93;2.83;;;;;;;;;;5053764;28;20393;-55
2022/05/08 13:43:39;;;;;;;6.97;3.10;;;;;;;;;;5056306;28;20421;-55
2022/05/08 13:46:05;;;;;;;3.00;2.53;;;;;;;;;;5059811;28;20462;-55
2022/05/08 13:48:32;;;;;;;8.73;2.77;;;;;;;;;;5065242;28;20440;-55
2022/05/08 13:50:58;;;;;;;4.70;2.67;;;;;;;;;;5054534;28;20401;-56
2022/05/08 13:53:24;;;;;;;5.07;3.17;;;;;;;;;;5050975;28;20540;-55
2022/05/08 13:55:54;;;;;;;3.37;2.97;;;;;;;;;;5052330;28;20480;-56
2022/05/08 13:58:20;;;;;;;4.60;2.90;;;;;;;;;;5052325;28;20781;-56
2022/05/08 14:00:48;;;;;;;4.30;2.63;;;;;;;;;;5051907;28;20484;-56
2022/05/08 14:03:14;;;;;;;7.00;3.63;;;;;;;;;;5052180;28;20417;-56
2022/05/08 14:05:41;;;;;;;14.93;3.67;;;;;;;;;;5052191;28;20406;-55
2022/05/08 14:08:08;;;;;;;5.70;3.00;;;;;;;;;;5053996;28;20402;-55
2022/05/08 14:10:34;;;;;;;5.87;3.10;;;;;;;;;;5053939;28;20470;-55
2022/05/08 14:13:00;;;;;;;8.33;3.40;;;;;;;;;;5053485;28;20417;-56
2022/05/08 14:15:26;;;;;;;5.57;3.33;;;;;;;;;;5053969;28;20457;-55
2022/05/08 14:17:52;;;;;;;5.60;3.10;;;;;;;;;;5053976;28;20401;-55
2022/05/08 14:20:18;;;;;;;9.70;3.60;;;;;;;;;;5061627;28;20439;-55
2022/05/08 14:22:44;;;;;;;7.40;3.60;;;;;;;;;;5073122;28;20417;-56
2022/05/08 14:25:11;;;;;;;7.70;3.80;;;;;;;;;;5072072;28;20424;-55
2022/05/08 14:27:37;;;;;;;8.20;3.00;;;;;;;;;;5073726;28;20974;-55
2022/05/08 14:30:06;;;;;;;4.77;2.80;;;;;;;;;;5073702;28;20400;-56
2022/05/08 14:38:01;;;;;;;4.67;3.40;;;;;;;;;;5073578;28;20392;-56
2022/05/08 14:40:29;;;;;;;4.50;3.57;;;;;;;;;;5073319;28;20393;-56
2022/05/08 14:42:55;;;;;;;3.37;3.07;;;;;;;;;;5072825;28;20420;-55
2022/05/08 14:45:21;;;;;;;6.77;3.27;;;;;;;;;;5073320;28;20406;-56
2022/05/08 14:47:47;;;;;;;6.00;3.40;;;;;;;;;;5073616;28;20403;-55
2022/05/08 14:50:14;;;;;;;6.20;2.90;;;;;;;;;;5093404;28;20475;-56
2022/05/08 14:52:40;;;;;;;6.73;3.40;;;;;;;;;;5092584;28;20477;-56
2022/05/08 14:55:06;;;;;;;4.90;3.13;;;;;;;;;;5093417;28;20495;-56
2022/05/08 14:57:32;;;;;;;5.43;3.30;;;;;;;;;;5093388;28;20900;-55
2022/05/08 14:59:58;;;;;;;6.83;3.20;;;;;;;;;;5093274;28;20399;-55
2022/05/08 15:02:24;;;;;;;6.97;3.20;;;;;;;;;;5084167;28;20427;-55
2022/05/08 15:04:51;;;;;;;7.43;2.87;;;;;;;;;;5092812;28;20403;-56
2022/05/08 15:07:17;;;;;;;6.00;3.47;;;;;;;;;;5088321;28;20412;-55
2022/05/08 15:09:43;;;;;;;4.47;2.53;;;;;;;;;;5072980;28;20457;-55
2022/05/08 15:12:09;;;;;;;8.37;3.23;;;;;;;;;;5072251;28;20415;-56
2022/05/08 15:14:35;;;;;;;3.93;2.70;;;;;;;;;;5072642;28;20972;-55
2022/05/08 15:17:01;;;;;;;9.83;3.23;;;;;;;;;;5072909;28;20427;-55